sensor_id;sensor_type;location;lat;lon;timestamp;pressure;altitude;pressure_sealevel;temperature;humidity
7940;BME280;4015;48.888;9.226;2023-03-03T00:02:09;156074.97;;;3.28;78.94
7940;BME280;4015;48.888;9.226;2023-03-03T00:04:34;156069.84;;;3.25;78.40
7940;BME280;4015;48.888;9.226;2023-03-03T00:07:00;156063.50;;;3.23;79.13
7940;BME280;4015;48.888;9.226;2023-03-03T00:09:25;156019.00;;;3.05;78.88
7940;BME280;4015;48.888;9.226;2023-03-03T00:11:54;156038.06;;;3.13;79.00
7940;BME280;4015;48.888;9.226;2023-03-03T00:14:31;156040.59;;;3.14;78.19
7940;BME280;4015;48.888;9.226;2023-03-03T00:16:57;156031.72;;;3.10;78.71
7940;BME280;4015;48.888;9.226;2023-03-03T00:19:24;156024.09;;;3.07;78.43
7940;BME280;4015;48.888;9.226;2023-03-03T00:21:51;156002.50;;;2.98;78.14
7940;BME280;4015;48.888;9.226;2023-03-03T00:24:18;155997.44;;;2.96;78.76
7940;BME280;4015;48.888;9.226;2023-03-03T00:26:55;155985.97;;;2.92;79.04
7940;BME280;4015;48.888;9.226;2023-03-03T00:29:35;155965.66;;;2.84;78.77
7940;BME280;4015;48.888;9.226;2023-03-03T00:34:39;155951.69;;;2.78;78.99
7940;BME280;4015;48.888;9.226;2023-03-03T00:37:27;155930.06;;;2.69;81.10
7940;BME280;4015;48.888;9.226;2023-03-03T00:40:15;155917.38;;;2.64;81.14
7940;BME280;4015;48.888;9.226;2023-03-03T00:42:46;155891.97;;;2.54;81.07
7940;BME280;4015;48.888;9.226;2023-03-03T00:47:47;155876.72;;;2.48;81.14
7940;BME280;4015;48.888;9.226;2023-03-03T00:50:32;155864.00;;;2.43;81.61
7940;BME280;4015;48.888;9.226;2023-03-03T00:55:28;155864.00;;;2.43;81.27
7940;BME280;4015;48.888;9.226;2023-03-03T00:57:54;155889.44;;;2.53;80.67
7940;BME280;4015;48.888;9.226;2023-03-03T01:00:19;155872.91;;;2.47;80.83
7940;BME280;4015;48.888;9.226;2023-03-03T01:02:45;155858.94;;;2.41;81.08
7940;BME280;4015;48.888;9.226;2023-03-03T01:05:14;155855.13;;;2.39;81.06
7940;BME280;4015;48.888;9.226;2023-03-03T01:07:40;155856.41;;;2.40;80.79
7940;BME280;4015;48.888;9.226;2023-03-03T01:10:05;155842.44;;;2.34;81.60
7940;BME280;4015;48.888;9.226;2023-03-03T01:12:31;155843.69;;;2.35;80.63
7940;BME280;4015;48.888;9.226;2023-03-03T01:14:56;155848.75;;;2.37;80.33
7940;BME280;4015;48.888;9.226;2023-03-03T01:17:22;155852.56;;;2.38;79.86
7940;BME280;4015;48.888;9.226;2023-03-03T01:19:47;155853.88;;;2.39;80.48
7940;BME280;4015;48.888;9.226;2023-03-03T01:22:13;155842.44;;;2.34;80.47
7940;BME280;4015;48.888;9.226;2023-03-03T01:24:38;155828.44;;;2.29;79.87
7940;BME280;4015;48.888;9.226;2023-03-03T01:27:04;155824.66;;;2.27;80.14
7940;BME280;4015;48.888;9.226;2023-03-03T01:29:29;155815.72;;;2.24;80.47
7940;BME280;4015;48.888;9.226;2023-03-03T01:31:54;155813.22;;;2.23;80.91
7940;BME280;4015;48.888;9.226;2023-03-03T01:34:19;155804.28;;;2.19;80.79
7940;BME280;4015;48.888;9.226;2023-03-03T01:36:45;155818.28;;;2.25;80.75
7940;BME280;4015;48.888;9.226;2023-03-03T01:39:11;155777.66;;;2.08;82.33
7940;BME280;4015;48.888;9.226;2023-03-03T01:41:37;155752.25;;;1.98;82.62
7940;BME280;4015;48.888;9.226;2023-03-03T01:44:02;155791.63;;;2.14;81.49
7940;BME280;4015;48.888;9.226;2023-03-03T01:49:40;155752.25;;;1.98;81.39
7940;BME280;4015;48.888;9.226;2023-03-03T01:52:13;155726.81;;;1.88;81.48
7940;BME280;4015;48.888;9.226;2023-03-03T01:54:46;155723.03;;;1.86;81.62
7940;BME280;4015;48.888;9.226;2023-03-03T01:57:20;155734.47;;;1.91;81.61
7940;BME280;4015;48.888;9.226;2023-03-03T01:59:49;155742.06;;;1.94;81.31
7940;BME280;4015;48.888;9.226;2023-03-03T02:02:16;155738.25;;;1.93;81.29
7940;BME280;4015;48.888;9.226;2023-03-03T02:04:42;155711.59;;;1.82;82.18
7940;BME280;4015;48.888;9.226;2023-03-03T02:07:09;155714.16;;;1.83;82.46
7940;BME280;4015;48.888;9.226;2023-03-03T02:09:43;155723.03;;;1.86;82.34
7940;BME280;4015;48.888;9.226;2023-03-03T02:12:13;155735.75;;;1.92;82.05
7940;BME280;4015;48.888;9.226;2023-03-03T02:14:41;155692.56;;;1.74;83.24
7940;BME280;4015;48.888;9.226;2023-03-03T02:17:06;155705.25;;;1.79;82.78
7940;BME280;4015;48.888;9.226;2023-03-03T02:19:41;155711.59;;;1.82;82.81
7940;BME280;4015;48.888;9.226;2023-03-03T02:22:13;155719.22;;;1.85;82.41
7940;BME280;4015;48.888;9.226;2023-03-03T02:25:01;155682.44;;;1.70;82.49
7940;BME280;4015;48.888;9.226;2023-03-03T02:27:30;155681.13;;;1.70;83.01
7940;BME280;4015;48.888;9.226;2023-03-03T02:29:56;155682.44;;;1.70;82.88
7940;BME280;4015;48.888;9.226;2023-03-03T02:32:22;155657.03;;;1.60;82.79
7940;BME280;4015;48.888;9.226;2023-03-03T02:34:49;155649.38;;;1.57;83.17
7940;BME280;4015;48.888;9.226;2023-03-03T02:37:15;155634.16;;;1.51;83.14
7940;BME280;4015;48.888;9.226;2023-03-03T02:39:42;155627.81;;;1.48;82.90
7940;BME280;4015;48.888;9.226;2023-03-03T02:44:36;155663.34;;;1.62;81.67
7940;BME280;4015;48.888;9.226;2023-03-03T02:47:02;155657.03;;;1.60;82.12
7940;BME280;4015;48.888;9.226;2023-03-03T02:49:32;155635.47;;;1.51;82.18
7940;BME280;4015;48.888;9.226;2023-03-03T02:51:59;155613.84;;;1.43;82.28
7940;BME280;4015;48.888;9.226;2023-03-03T02:54:27;155625.28;;;1.47;82.65
7940;BME280;4015;48.888;9.226;2023-03-03T02:56:52;155615.13;;;1.43;82.07
7940;BME280;4015;48.888;9.226;2023-03-03T02:59:18;155634.16;;;1.51;81.50
7940;BME280;4015;48.888;9.226;2023-03-03T03:01:44;155601.16;;;1.38;82.02
7940;BME280;4015;48.888;9.226;2023-03-03T03:04:12;155626.53;;;1.48;81.95
7940;BME280;4015;48.888;9.226;2023-03-03T03:06:38;155659.56;;;1.61;81.78
7940;BME280;4015;48.888;9.226;2023-03-03T03:09:05;155673.53;;;1.67;80.93
7940;BME280;4015;48.888;9.226;2023-03-03T03:11:31;155649.38;;;1.57;82.02
7940;BME280;4015;48.888;9.226;2023-03-03T03:13:56;155650.69;;;1.57;81.68
7940;BME280;4015;48.888;9.226;2023-03-03T03:16:22;155672.25;;;1.66;81.66
7940;BME280;4015;48.888;9.226;2023-03-03T03:18:47;155667.19;;;1.64;81.89
7940;BME280;4015;48.888;9.226;2023-03-03T03:21:15;155662.09;;;1.62;82.97
7940;BME280;4015;48.888;9.226;2023-03-03T03:23:40;155658.28;;;1.60;82.83
7940;BME280;4015;48.888;9.226;2023-03-03T03:26:07;155665.94;;;1.64;82.44
7940;BME280;4015;48.888;9.226;2023-03-03T03:28:33;155673.53;;;1.67;81.80
7940;BME280;4015;48.888;9.226;2023-03-03T03:30:59;155697.66;;;1.76;81.64
7940;BME280;4015;48.888;9.226;2023-03-03T03:33:25;155687.50;;;1.72;81.45
7940;BME280;4015;48.888;9.226;2023-03-03T03:35:52;155664.63;;;1.63;82.39
7940;BME280;4015;48.888;9.226;2023-03-03T03:38:20;155657.03;;;1.60;81.88
7940;BME280;4015;48.888;9.226;2023-03-03T03:40:45;155672.25;;;1.66;82.04
7940;BME280;4015;48.888;9.226;2023-03-03T03:43:11;155674.78;;;1.67;81.96
7940;BME280;4015;48.888;9.226;2023-03-03T03:45:36;155676.06;;;1.68;81.81
7940;BME280;4015;48.888;9.226;2023-03-03T03:48:01;155655.75;;;1.59;82.14
7940;BME280;4015;48.888;9.226;2023-03-03T03:50:27;155639.25;;;1.53;82.47
7940;BME280;4015;48.888;9.226;2023-03-03T03:52:52;155649.38;;;1.57;82.25
7940;BME280;4015;48.888;9.226;2023-03-03T03:55:17;155659.56;;;1.61;82.49
7940;BME280;4015;48.888;9.226;2023-03-03T03:57:42;155691.28;;;1.74;81.86
7940;BME280;4015;48.888;9.226;2023-03-03T04:00:10;155681.13;;;1.70;82.11
7940;BME280;4015;48.888;9.226;2023-03-03T04:02:36;155664.63;;;1.63;82.54
7940;BME280;4015;48.888;9.226;2023-03-03T04:05:02;155673.53;;;1.67;83.11
7940;BME280;4015;48.888;9.226;2023-03-03T04:07:27;155673.53;;;1.67;82.66
7940;BME280;4015;48.888;9.226;2023-03-03T04:09:53;155695.09;;;1.75;82.57
7940;BME280;4015;48.888;9.226;2023-03-03T04:12:18;155719.22;;;1.85;82.17
7940;BME280;4015;48.888;9.226;2023-03-03T04:14:44;155711.59;;;1.82;82.17
7940;BME280;4015;48.888;9.226;2023-03-03T04:17:16;155739.53;;;1.93;82.38
7940;BME280;4015;48.888;9.226;2023-03-03T04:19:43;155781.44;;;2.10;81.94
7940;BME280;4015;48.888;9.226;2023-03-03T04:22:08;155796.69;;;2.16;81.99
7940;BME280;4015;48.888;9.226;2023-03-03T04:24:33;155801.75;;;2.18;82.42
7940;BME280;4015;48.888;9.226;2023-03-03T04:26:59;155803.03;;;2.19;82.40
7940;BME280;4015;48.888;9.226;2023-03-03T04:29:25;155839.88;;;2.33;81.44
7940;BME280;4015;48.888;9.226;2023-03-03T04:31:50;155838.63;;;2.33;81.64
7940;BME280;4015;48.888;9.226;2023-03-03T04:34:16;155870.38;;;2.46;81.33
7940;BME280;4015;48.888;9.226;2023-03-03T04:36:41;155881.78;;;2.50;81.66
7940;BME280;4015;48.888;9.226;2023-03-03T04:39:06;155890.69;;;2.54;81.90
7940;BME280;4015;48.888;9.226;2023-03-03T04:41:31;155889.44;;;2.53;81.88
7940;BME280;4015;48.888;9.226;2023-03-03T04:43:57;155881.78;;;2.50;82.13
7940;BME280;4015;48.888;9.226;2023-03-03T04:46:22;155905.94;;;2.60;82.21
7940;BME280;4015;48.888;9.226;2023-03-03T04:48:47;155937.69;;;2.73;81.96
7940;BME280;4015;48.888;9.226;2023-03-03T04:51:13;155916.06;;;2.64;81.60
7940;BME280;4015;48.888;9.226;2023-03-03T04:53:40;155933.91;;;2.71;81.90
7940;BME280;4015;48.888;9.226;2023-03-03T04:56:06;155955.47;;;2.80;80.97
7940;BME280;4015;48.888;9.226;2023-03-03T04:58:31;155938.97;;;2.73;81.24
7940;BME280;4015;48.888;9.226;2023-03-03T05:00:57;155926.25;;;2.68;81.83
7940;BME280;4015;48.888;9.226;2023-03-03T05:03:22;155968.19;;;2.85;81.48
7940;BME280;4015;48.888;9.226;2023-03-03T05:05:48;155968.19;;;2.85;80.09
7940;BME280;4015;48.888;9.226;2023-03-03T05:08:13;156012.69;;;3.03;79.34
7940;BME280;4015;48.888;9.226;2023-03-03T05:10:39;156024.09;;;3.07;79.02
7940;BME280;4015;48.888;9.226;2023-03-03T05:13:04;156006.28;;;3.00;79.09
7940;BME280;4015;48.888;9.226;2023-03-03T05:15:30;156011.41;;;3.02;79.44
7940;BME280;4015;48.888;9.226;2023-03-03T05:17:56;156024.09;;;3.07;79.83
7940;BME280;4015;48.888;9.226;2023-03-03T05:20:22;156003.75;;;2.99;79.40
7940;BME280;4015;48.888;9.226;2023-03-03T05:22:48;155991.03;;;2.94;80.25
7940;BME280;4015;48.888;9.226;2023-03-03T05:25:13;155958.00;;;2.81;80.03
7940;BME280;4015;48.888;9.226;2023-03-03T05:27:38;155935.16;;;2.72;81.01
7940;BME280;4015;48.888;9.226;2023-03-03T05:30:05;155914.81;;;2.63;81.23
7940;BME280;4015;48.888;9.226;2023-03-03T05:32:31;155902.13;;;2.58;81.81
7940;BME280;4015;48.888;9.226;2023-03-03T05:34:56;155932.63;;;2.70;81.94
7940;BME280;4015;48.888;9.226;2023-03-03T05:37:22;155942.75;;;2.75;81.08
7940;BME280;4015;48.888;9.226;2023-03-03T05:39:48;155958.00;;;2.81;81.01
7940;BME280;4015;48.888;9.226;2023-03-03T05:42:14;155931.31;;;2.70;81.38
7940;BME280;4015;48.888;9.226;2023-03-03T05:44:39;155923.72;;;2.67;81.00
7940;BME280;4015;48.888;9.226;2023-03-03T05:47:04;155918.66;;;2.65;81.10
7940;BME280;4015;48.888;9.226;2023-03-03T05:49:30;155970.72;;;2.86;81.03
7940;BME280;4015;48.888;9.226;2023-03-03T05:51:55;155968.19;;;2.85;81.13
7940;BME280;4015;48.888;9.226;2023-03-03T05:54:20;155978.34;;;2.89;79.95
7940;BME280;4015;48.888;9.226;2023-03-03T05:56:46;155975.78;;;2.88;80.30
7940;BME280;4015;48.888;9.226;2023-03-03T05:59:11;155991.03;;;2.94;80.30
7940;BME280;4015;48.888;9.226;2023-03-03T06:01:37;155968.19;;;2.85;79.94
7940;BME280;4015;48.888;9.226;2023-03-03T06:04:02;156011.41;;;3.02;79.22
7940;BME280;4015;48.888;9.226;2023-03-03T06:06:27;156010.09;;;3.02;78.51
7940;BME280;4015;48.888;9.226;2023-03-03T06:08:53;156007.56;;;3.01;78.51
7940;BME280;4015;48.888;9.226;2023-03-03T06:11:18;156003.75;;;2.99;78.25
7940;BME280;4015;48.888;9.226;2023-03-03T06:13:43;156007.56;;;3.01;78.32
7940;BME280;4015;48.888;9.226;2023-03-03T06:16:09;156013.94;;;3.03;77.78
7940;BME280;4015;48.888;9.226;2023-03-03T06:18:34;155992.31;;;2.94;77.81
7940;BME280;4015;48.888;9.226;2023-03-03T06:21:00;156005.03;;;3.00;78.18
7940;BME280;4015;48.888;9.226;2023-03-03T06:23:25;155999.97;;;2.97;77.86
7940;BME280;4015;48.888;9.226;2023-03-03T06:25:50;156044.44;;;3.15;78.49
7940;BME280;4015;48.888;9.226;2023-03-03T06:28:17;156027.94;;;3.09;77.07
7940;BME280;4015;48.888;9.226;2023-03-03T06:30:45;156017.75;;;3.05;77.74
7940;BME280;4015;48.888;9.226;2023-03-03T06:33:10;156019.00;;;3.05;77.18
7940;BME280;4015;48.888;9.226;2023-03-03T06:35:36;156044.44;;;3.15;76.90
7940;BME280;4015;48.888;9.226;2023-03-03T06:38:01;155997.44;;;2.96;77.62
7940;BME280;4015;48.888;9.226;2023-03-03T06:40:27;156027.94;;;3.09;77.64
7940;BME280;4015;48.888;9.226;2023-03-03T06:42:52;156078.75;;;3.29;77.86
7940;BME280;4015;48.888;9.226;2023-03-03T06:45:17;156085.09;;;3.32;76.85
7940;BME280;4015;48.888;9.226;2023-03-03T06:47:43;156096.53;;;3.36;76.99
7940;BME280;4015;48.888;9.226;2023-03-03T06:50:10;156092.75;;;3.35;76.87
7940;BME280;4015;48.888;9.226;2023-03-03T06:52:36;156119.41;;;3.45;76.70
7940;BME280;4015;48.888;9.226;2023-03-03T06:55:10;156097.81;;;3.37;76.70
7940;BME280;4015;48.888;9.226;2023-03-03T06:57:36;156137.25;;;3.53;76.36
7940;BME280;4015;48.888;9.226;2023-03-03T07:00:15;156127.06;;;3.48;75.83
7940;BME280;4015;48.888;9.226;2023-03-03T07:02:41;156143.59;;;3.55;76.17
7940;BME280;4015;48.888;9.226;2023-03-03T07:05:14;156120.72;;;3.46;76.15
7940;BME280;4015;48.888;9.226;2023-03-03T07:07:39;156114.34;;;3.43;76.51
7940;BME280;4015;48.888;9.226;2023-03-03T07:10:20;156120.72;;;3.46;75.42
7940;BME280;4015;48.888;9.226;2023-03-03T07:12:46;156151.19;;;3.58;75.54
7940;BME280;4015;48.888;9.226;2023-03-03T07:15:19;156118.13;;;3.45;75.32
7940;BME280;4015;48.888;9.226;2023-03-03T07:17:48;156149.91;;;3.58;74.67
7940;BME280;4015;48.888;9.226;2023-03-03T07:20:22;156193.16;;;3.75;74.94
7940;BME280;4015;48.888;9.226;2023-03-03T07:22:48;156242.75;;;3.95;74.64
7940;BME280;4015;48.888;9.226;2023-03-03T07:25:32;156185.56;;;3.72;74.92
7940;BME280;4015;48.888;9.226;2023-03-03T07:28:23;156204.63;;;3.79;74.95
7940;BME280;4015;48.888;9.226;2023-03-03T07:30:50;156266.94;;;4.04;73.95
7940;BME280;4015;48.888;9.226;2023-03-03T07:33:36;156287.25;;;4.13;72.68
7940;BME280;4015;48.888;9.226;2023-03-03T07:36:17;156302.53;;;4.19;72.44
7940;BME280;4015;48.888;9.226;2023-03-03T07:38:53;156350.84;;;4.38;71.75
7940;BME280;4015;48.888;9.226;2023-03-03T07:41:19;156343.25;;;4.35;71.78
7940;BME280;4015;48.888;9.226;2023-03-03T07:43:49;156451.38;;;4.78;71.69
7940;BME280;4015;48.888;9.226;2023-03-03T07:46:33;156535.34;;;5.12;70.29
7940;BME280;4015;48.888;9.226;2023-03-03T07:49:01;156549.38;;;5.18;70.01
7940;BME280;4015;48.888;9.226;2023-03-03T07:51:38;156605.34;;;5.40;68.28
7940;BME280;4015;48.888;9.226;2023-03-03T07:54:21;156717.41;;;5.85;66.89
7940;BME280;4015;48.888;9.226;2023-03-03T07:56:52;156818.06;;;6.25;65.81
7940;BME280;4015;48.888;9.226;2023-03-03T07:59:25;156918.69;;;6.65;66.23
7940;BME280;4015;48.888;9.226;2023-03-03T08:01:53;157014.22;;;7.03;64.41
7940;BME280;4015;48.888;9.226;2023-03-03T08:04:38;157182.50;;;7.71;62.20
7940;BME280;4015;48.888;9.226;2023-03-03T08:07:10;157169.75;;;7.66;60.99
7940;BME280;4015;48.888;9.226;2023-03-03T08:09:49;157117.50;;;7.45;62.62
7940;BME280;4015;48.888;9.226;2023-03-03T08:12:30;157343.19;;;8.35;61.59
7940;BME280;4015;48.888;9.226;2023-03-03T08:15:06;157500.16;;;8.98;57.85
7940;BME280;4015;48.888;9.226;2023-03-03T08:17:38;157492.50;;;8.95;58.45
7940;BME280;4015;48.888;9.226;2023-03-03T08:22:52;157313.84;;;8.23;59.76
7940;BME280;4015;48.888;9.226;2023-03-03T08:25:18;157773.34;;;10.07;56.81
7940;BME280;4015;48.888;9.226;2023-03-03T08:27:43;157779.72;;;10.09;55.61
7940;BME280;4015;48.888;9.226;2023-03-03T08:30:09;157704.38;;;9.79;54.76
7940;BME280;4015;48.888;9.226;2023-03-03T08:32:35;157712.06;;;9.82;55.42
7940;BME280;4015;48.888;9.226;2023-03-03T08:35:00;157833.38;;;10.31;54.57
7940;BME280;4015;48.888;9.226;2023-03-03T08:37:25;157830.84;;;10.30;54.67
7940;BME280;4015;48.888;9.226;2023-03-03T08:39:51;157769.47;;;10.05;54.69
7940;BME280;4015;48.888;9.226;2023-03-03T08:42:16;157761.84;;;10.02;54.42
7940;BME280;4015;48.888;9.226;2023-03-03T08:44:42;158238.50;;;11.92;50.56
7940;BME280;4015;48.888;9.226;2023-03-03T08:47:07;158400.91;;;12.57;49.99
7940;BME280;4015;48.888;9.226;2023-03-03T08:49:33;158710.59;;;13.80;47.37
7940;BME280;4015;48.888;9.226;2023-03-03T08:51:58;158902.69;;;14.56;46.87
7940;BME280;4015;48.888;9.226;2023-03-03T08:54:25;158764.34;;;14.01;46.78
7940;BME280;4015;48.888;9.226;2023-03-03T08:56:50;158907.81;;;14.59;46.48
7940;BME280;4015;48.888;9.226;2023-03-03T08:59:16;158959.03;;;14.79;46.47
7940;BME280;4015;48.888;9.226;2023-03-03T09:01:41;158948.78;;;14.75;45.18
7940;BME280;4015;48.888;9.226;2023-03-03T09:04:09;158765.66;;;14.02;46.43
7940;BME280;4015;48.888;9.226;2023-03-03T09:06:34;158559.56;;;13.20;48.07
7940;BME280;4015;48.888;9.226;2023-03-03T09:08:59;158480.19;;;12.88;48.52
7940;BME280;4015;48.888;9.226;2023-03-03T09:11:26;158673.50;;;13.65;48.96
7940;BME280;4015;48.888;9.226;2023-03-03T09:16:35;158140.03;;;11.53;52.08
7940;BME280;4015;48.888;9.226;2023-03-03T09:19:15;158192.44;;;11.74;51.50
7940;BME280;4015;48.888;9.226;2023-03-03T09:21:43;158148.97;;;11.56;50.93
7940;BME280;4015;48.888;9.226;2023-03-03T09:24:20;157990.50;;;10.93;52.97
7940;BME280;4015;48.888;9.226;2023-03-03T09:26:48;157861.50;;;10.42;54.08
7940;BME280;4015;48.888;9.226;2023-03-03T09:31:49;157737.56;;;9.92;55.62
7940;BME280;4015;48.888;9.226;2023-03-03T09:34:26;157811.63;;;10.22;55.58
7940;BME280;4015;48.888;9.226;2023-03-03T09:36:54;157792.50;;;10.14;55.12
7940;BME280;4015;48.888;9.226;2023-03-03T09:39:22;157752.88;;;9.98;55.26
7940;BME280;4015;48.888;9.226;2023-03-03T09:53:28;158178.38;;;11.68;52.25
7940;BME280;4015;48.888;9.226;2023-03-03T10:23:31;158420.13;;;12.64;49.33
7940;BME280;4015;48.888;9.226;2023-03-03T10:26:44;158423.94;;;12.66;49.97
7940;BME280;4015;48.888;9.226;2023-03-03T10:29:25;158475.09;;;12.86;48.42
7940;BME280;4015;48.888;9.226;2023-03-03T10:31:57;158585.19;;;13.30;46.63
7940;BME280;4015;48.888;9.226;2023-03-03T10:37:36;158932.13;;;14.68;44.10
7940;BME280;4015;48.888;9.226;2023-03-03T10:46:01;159251.16;;;15.95;40.63
7940;BME280;4015;48.888;9.226;2023-03-03T10:57:06;159406.28;;;16.57;40.09
7940;BME280;4015;48.888;9.226;2023-03-03T11:07:38;158928.31;;;14.67;43.77
7940;BME280;4015;48.888;9.226;2023-03-03T11:10:26;158806.59;;;14.18;44.27
7940;BME280;4015;48.888;9.226;2023-03-03T11:23:38;158294.78;;;12.14;48.67
7940;BME280;4015;48.888;9.226;2023-03-03T11:34:06;158119.59;;;11.45;50.30
7940;BME280;4015;48.888;9.226;2023-03-03T11:36:40;158119.59;;;11.45;50.58
7940;BME280;4015;48.888;9.226;2023-03-03T11:39:10;158137.50;;;11.52;50.67
7940;BME280;4015;48.888;9.226;2023-03-03T11:42:19;158301.16;;;12.17;49.29
7940;BME280;4015;48.888;9.226;2023-03-03T11:44:50;158427.78;;;12.67;48.24
7940;BME280;4015;48.888;9.226;2023-03-03T11:47:26;158539.06;;;13.12;47.20
7940;BME280;4015;48.888;9.226;2023-03-03T11:50:04;158715.69;;;13.82;46.21
7940;BME280;4015;48.888;9.226;2023-03-03T11:53:01;158796.38;;;14.14;45.21
7940;BME280;4015;48.888;9.226;2023-03-03T11:55:37;158719.56;;;13.84;44.88
7940;BME280;4015;48.888;9.226;2023-03-03T12:01:01;158998.72;;;14.95;43.81
7940;BME280;4015;48.888;9.226;2023-03-03T12:09:28;158874.44;;;14.45;43.59
7940;BME280;4015;48.888;9.226;2023-03-03T12:12:07;158924.47;;;14.65;45.18
7940;BME280;4015;48.888;9.226;2023-03-03T12:20:06;159073.03;;;15.24;43.57
7940;BME280;4015;48.888;9.226;2023-03-03T12:27:55;158879.66;;;14.47;43.81
7940;BME280;4015;48.888;9.226;2023-03-03T12:30:58;159019.25;;;15.03;44.58
7940;BME280;4015;48.888;9.226;2023-03-03T12:33:51;158866.78;;;14.42;43.70
7940;BME280;4015;48.888;9.226;2023-03-03T12:39:28;158834.78;;;14.29;44.48
7940;BME280;4015;48.888;9.226;2023-03-03T12:44:52;158632.53;;;13.49;45.25
7940;BME280;4015;48.888;9.226;2023-03-03T12:47:37;158656.88;;;13.59;46.00
7940;BME280;4015;48.888;9.226;2023-03-03T12:52:56;158836.06;;;14.30;45.43
7940;BME280;4015;48.888;9.226;2023-03-03T12:58:29;159134.53;;;15.49;43.96
7940;BME280;4015;48.888;9.226;2023-03-03T13:04:07;160062.06;;;19.17;36.81
7940;BME280;4015;48.888;9.226;2023-03-03T13:06:57;160089.00;;;19.28;37.34
7940;BME280;4015;48.888;9.226;2023-03-03T13:17:37;160538.75;;;21.06;34.56
7940;BME280;4015;48.888;9.226;2023-03-03T13:22:44;159987.59;;;18.88;36.42
7940;BME280;4015;48.888;9.226;2023-03-03T13:27:56;160071.03;;;19.21;36.52
7940;BME280;4015;48.888;9.226;2023-03-03T13:30:26;160139.06;;;19.48;36.49
7940;BME280;4015;48.888;9.226;2023-03-03T13:33:09;160205.94;;;19.74;36.79
7940;BME280;4015;48.888;9.226;2023-03-03T13:35:48;160105.69;;;19.34;36.43
7940;BME280;4015;48.888;9.226;2023-03-03T13:38:22;159981.16;;;18.85;36.15
7940;BME280;4015;48.888;9.226;2023-03-03T13:41:05;159797.59;;;18.12;37.69
7940;BME280;4015;48.888;9.226;2023-03-03T13:46:41;159778.34;;;18.04;37.62
7940;BME280;4015;48.888;9.226;2023-03-03T13:51:52;159771.91;;;18.02;37.62
7940;BME280;4015;48.888;9.226;2023-03-03T14:05:29;159764.25;;;17.99;38.46
7940;BME280;4015;48.888;9.226;2023-03-03T14:08:07;159679.47;;;17.65;38.94
7940;BME280;4015;48.888;9.226;2023-03-03T14:10:43;159832.22;;;18.26;38.22
7940;BME280;4015;48.888;9.226;2023-03-03T14:16:09;159684.66;;;17.67;38.68
7940;BME280;4015;48.888;9.226;2023-03-03T14:21:48;159651.28;;;17.54;38.47
7940;BME280;4015;48.888;9.226;2023-03-03T14:24:19;159724.44;;;17.83;39.05
7940;BME280;4015;48.888;9.226;2023-03-03T14:26:52;159598.66;;;17.33;39.62
7940;BME280;4015;48.888;9.226;2023-03-03T14:31:57;159787.31;;;18.08;38.15
7940;BME280;4015;48.888;9.226;2023-03-03T14:36:50;159782.19;;;18.06;39.65
7940;BME280;4015;48.888;9.226;2023-03-03T14:41:52;159715.50;;;17.79;38.45
7940;BME280;4015;48.888;9.226;2023-03-03T14:44:28;159736.00;;;17.88;39.27
7940;BME280;4015;48.888;9.226;2023-03-03T14:49:35;159621.78;;;17.42;39.68
7940;BME280;4015;48.888;9.226;2023-03-03T14:52:26;159651.28;;;17.54;39.31
7940;BME280;4015;48.888;9.226;2023-03-03T14:54:54;159456.31;;;16.77;39.81
7940;BME280;4015;48.888;9.226;2023-03-03T15:02:43;159097.41;;;15.34;43.05
7940;BME280;4015;48.888;9.226;2023-03-03T15:07:53;158738.75;;;13.91;45.52
7940;BME280;4015;48.888;9.226;2023-03-03T15:10:32;158782.31;;;14.09;45.71
7940;BME280;4015;48.888;9.226;2023-03-03T15:13:09;158603.09;;;13.37;46.21
7940;BME280;4015;48.888;9.226;2023-03-03T15:15:48;158518.59;;;13.04;46.95
7940;BME280;4015;48.888;9.226;2023-03-03T15:18:16;158425.22;;;12.66;47.49
7940;BME280;4015;48.888;9.226;2023-03-03T15:28:51;158402.22;;;12.57;49.21
7940;BME280;4015;48.888;9.226;2023-03-03T15:31:30;158383.00;;;12.50;49.54
7940;BME280;4015;48.888;9.226;2023-03-03T15:37:02;158301.16;;;12.17;49.05
7940;BME280;4015;48.888;9.226;2023-03-03T15:39:48;158265.38;;;12.03;49.23
7940;BME280;4015;48.888;9.226;2023-03-03T15:42:51;158247.47;;;11.96;50.23
7940;BME280;4015;48.888;9.226;2023-03-03T15:45:33;158232.13;;;11.90;49.80
7940;BME280;4015;48.888;9.226;2023-03-03T15:48:26;158260.28;;;12.01;49.52
7940;BME280;4015;48.888;9.226;2023-03-03T15:54:11;158298.63;;;12.16;50.09
7940;BME280;4015;48.888;9.226;2023-03-03T15:56:55;158224.44;;;11.86;50.04
7940;BME280;4015;48.888;9.226;2023-03-03T16:02:19;158196.25;;;11.75;50.65
7940;BME280;4015;48.888;9.226;2023-03-03T16:05:02;158218.06;;;11.84;51.00
7940;BME280;4015;48.888;9.226;2023-03-03T16:07:39;158209.06;;;11.80;51.31
7940;BME280;4015;48.888;9.226;2023-03-03T16:23:45;158003.28;;;10.98;52.95
7940;BME280;4015;48.888;9.226;2023-03-03T16:26:50;157982.84;;;10.90;53.40
7940;BME280;4015;48.888;9.226;2023-03-03T16:29:33;157990.50;;;10.93;53.30
7940;BME280;4015;48.888;9.226;2023-03-03T16:32:08;157944.56;;;10.75;53.44
7940;BME280;4015;48.888;9.226;2023-03-03T16:34:46;157931.78;;;10.70;53.88
7940;BME280;4015;48.888;9.226;2023-03-03T16:37:26;157925.34;;;10.67;53.90
7940;BME280;4015;48.888;9.226;2023-03-03T16:42:28;157860.22;;;10.41;54.34
7940;BME280;4015;48.888;9.226;2023-03-03T16:47:51;157783.53;;;10.11;55.52
7940;BME280;4015;48.888;9.226;2023-03-03T16:50:49;157733.75;;;9.91;55.93
7940;BME280;4015;48.888;9.226;2023-03-03T16:53:26;157698.00;;;9.77;56.42
7940;BME280;4015;48.888;9.226;2023-03-03T16:56:08;157648.22;;;9.57;56.53
7940;BME280;4015;48.888;9.226;2023-03-03T16:58:52;157616.31;;;9.44;57.07
7940;BME280;4015;48.888;9.226;2023-03-03T17:01:34;157589.50;;;9.33;57.31
7940;BME280;4015;48.888;9.226;2023-03-03T17:06:45;157537.19;;;9.12;58.01
7940;BME280;4015;48.888;9.226;2023-03-03T17:20:31;157389.16;;;8.53;60.13
7940;BME280;4015;48.888;9.226;2023-03-03T17:23:22;157370.03;;;8.46;60.74
7940;BME280;4015;48.888;9.226;2023-03-03T17:26:01;157311.28;;;8.22;61.04
7940;BME280;4015;48.888;9.226;2023-03-03T17:33:54;157279.41;;;8.09;61.48
7940;BME280;4015;48.888;9.226;2023-03-03T17:44:39;157137.88;;;7.53;64.00
7940;BME280;4015;48.888;9.226;2023-03-03T17:47:51;157116.22;;;7.44;63.84
7940;BME280;4015;48.888;9.226;2023-03-03T17:50:36;157080.56;;;7.30;64.24
7940;BME280;4015;48.888;9.226;2023-03-03T18:03:50;156962.00;;;6.83;66.10
7940;BME280;4015;48.888;9.226;2023-03-03T18:11:58;156907.25;;;6.61;66.57